Time;durP1;ratioP1;P1;durP2;ratioP2;P2;SDS_P1;SDS_P2;PMS_P1;PMS_P2;Temp;Humidity;BMP_temperature;BMP_pressure;BME280_temperature;BME280_humidity;BME280_pressure;Samples;Min_cycle;Max_cycle;Signal;HPM_P1;HPM_P2
2022/03/23 00:01:43;;;;;;;42.47;20.98;;;;;;;;;;5084811;28;20422;-71
2022/03/23 00:04:09;;;;;;;49.22;21.65;;;;;;;;;;5074432;28;20021;-71
2022/03/23 00:06:35;;;;;;;39.30;21.52;;;;;;;;;;5076637;28;20714;-70
2022/03/23 00:09:01;;;;;;;42.45;21.15;;;;;;;;;;5077820;28;20119;-71
2022/03/23 00:11:27;;;;;;;46.25;23.52;;;;;;;;;;5075054;28;20044;-71
2022/03/23 00:13:54;;;;;;;43.92;21.15;;;;;;;;;;5085302;28;20085;-71
2022/03/23 00:16:20;;;;;;;53.85;21.77;;;;;;;;;;5077334;28;20043;-71
2022/03/23 00:18:46;;;;;;;39.40;21.08;;;;;;;;;;5077841;28;20039;-70
2022/03/23 00:21:12;;;;;;;44.60;20.95;;;;;;;;;;5081250;28;20024;-71
2022/03/23 00:23:38;;;;;;;35.72;19.67;;;;;;;;;;5076514;28;20024;-70
2022/03/23 00:26:04;;;;;;;42.40;20.25;;;;;;;;;;5087922;28;20021;-71
2022/03/23 00:28:30;;;;;;;41.35;20.45;;;;;;;;;;5078024;28;20020;-71
2022/03/23 00:30:57;;;;;;;36.13;19.25;;;;;;;;;;5076407;28;20386;-71
2022/03/23 00:33:23;;;;;;;41.42;18.55;;;;;;;;;;5079651;28;20028;-71
2022/03/23 00:35:49;;;;;;;43.03;19.60;;;;;;;;;;5076810;28;20135;-71
2022/03/23 00:38:16;;;;;;;40.40;18.63;;;;;;;;;;5078918;28;20017;-71
2022/03/23 00:40:43;;;;;;;32.78;18.60;;;;;;;;;;5074792;28;20024;-71
2022/03/23 00:43:09;;;;;;;38.63;17.60;;;;;;;;;;5085149;28;20016;-71
2022/03/23 00:45:35;;;;;;;36.22;18.10;;;;;;;;;;5074622;28;20020;-71
2022/03/23 00:48:02;;;;;;;45.28;19.08;;;;;;;;;;5075278;28;20086;-71
2022/03/23 00:50:28;;;;;;;36.00;18.38;;;;;;;;;;5084164;28;20043;-71
2022/03/23 00:52:54;;;;;;;33.38;18.77;;;;;;;;;;5072091;28;20039;-71
2022/03/23 00:55:20;;;;;;;32.88;18.13;;;;;;;;;;5071605;28;20028;-71
2022/03/23 00:57:46;;;;;;;42.08;18.70;;;;;;;;;;5075127;28;20028;-71
2022/03/23 01:00:17;;;;;;;38.33;18.52;;;;;;;;;;5076621;28;20085;-71
2022/03/23 01:02:44;;;;;;;33.70;17.25;;;;;;;;;;5080533;28;20020;-70
2022/03/23 01:05:11;;;;;;;36.05;18.52;;;;;;;;;;5073963;28;20029;-71
2022/03/23 01:07:37;;;;;;;38.13;18.23;;;;;;;;;;5073580;28;20049;-71
2022/03/23 01:10:04;;;;;;;39.45;18.98;;;;;;;;;;5070228;28;20081;-70
2022/03/23 01:12:29;;;;;;;35.40;17.67;;;;;;;;;;5073775;28;20135;-70
2022/03/23 01:14:56;;;;;;;37.17;18.50;;;;;;;;;;5075600;28;20110;-71
2022/03/23 01:17:22;;;;;;;34.75;16.85;;;;;;;;;;5088489;28;20028;-71
2022/03/23 01:19:48;;;;;;;34.22;18.35;;;;;;;;;;5074809;28;20147;-71
2022/03/23 01:22:14;;;;;;;41.97;17.95;;;;;;;;;;5077698;28;20116;-71
2022/03/23 01:24:40;;;;;;;33.83;18.02;;;;;;;;;;5076266;28;20059;-71
2022/03/23 01:27:05;;;;;;;32.75;17.92;;;;;;;;;;5073543;28;20401;-71
2022/03/23 01:29:31;;;;;;;32.78;17.88;;;;;;;;;;5078835;28;20028;-71
2022/03/23 01:31:57;;;;;;;34.20;18.00;;;;;;;;;;5078590;28;20028;-70
2022/03/23 01:34:23;;;;;;;32.90;17.52;;;;;;;;;;5086010;28;20032;-71
2022/03/23 01:36:49;;;;;;;32.40;17.13;;;;;;;;;;5082398;28;20032;-71
2022/03/23 01:39:15;;;;;;;31.65;16.65;;;;;;;;;;5079392;28;20056;-70
2022/03/23 01:41:41;;;;;;;30.15;16.17;;;;;;;;;;5074625;28;20386;-71
2022/03/23 01:44:15;;;;;;;31.42;17.40;;;;;;;;;;5088144;28;20020;-70
2022/03/23 01:47:00;;;;;;;34.60;17.30;;;;;;;;;;5081962;28;20425;-71
2022/03/23 01:49:26;;;;;;;31.88;16.50;;;;;;;;;;5084662;28;20028;-71
2022/03/23 01:51:52;;;;;;;34.22;16.95;;;;;;;;;;5080538;28;20674;-71
2022/03/23 01:54:18;;;;;;;32.88;15.90;;;;;;;;;;5073030;28;20552;-71
2022/03/23 01:56:44;;;;;;;36.75;16.48;;;;;;;;;;5075018;28;20032;-71
2022/03/23 01:59:10;;;;;;;33.35;16.85;;;;;;;;;;5072269;28;20029;-71
2022/03/23 02:01:38;;;;;;;31.15;16.33;;;;;;;;;;5070921;28;20090;-70
2022/03/23 02:04:04;;;;;;;35.60;16.85;;;;;;;;;;5081645;28;20073;-71
2022/03/23 02:06:29;;;;;;;28.23;16.55;;;;;;;;;;5079310;28;20032;-70
2022/03/23 02:08:55;;;;;;;33.67;17.95;;;;;;;;;;5087345;28;20050;-70
2022/03/23 02:11:21;;;;;;;31.35;16.65;;;;;;;;;;5072416;28;20438;-70
2022/03/23 02:13:48;;;;;;;29.35;16.60;;;;;;;;;;5081604;28;20080;-71
2022/03/23 02:16:14;;;;;;;37.20;17.65;;;;;;;;;;5074429;28;20666;-71
2022/03/23 02:18:40;;;;;;;40.63;17.38;;;;;;;;;;5072654;28;20038;-71
2022/03/23 02:21:06;;;;;;;31.23;16.50;;;;;;;;;;5085924;28;20028;-71
2022/03/23 02:23:32;;;;;;;30.10;16.50;;;;;;;;;;5079938;28;20028;-71
2022/03/23 02:26:01;;;;;;;31.70;16.90;;;;;;;;;;5075395;28;20107;-71
2022/03/23 02:28:27;;;;;;;32.20;17.27;;;;;;;;;;5079091;28;20016;-70
2022/03/23 02:30:56;;;;;;;34.60;16.85;;;;;;;;;;5083080;28;20024;-70
2022/03/23 02:33:22;;;;;;;34.30;17.65;;;;;;;;;;5084052;28;20508;-71
2022/03/23 02:35:48;;;;;;;31.27;17.05;;;;;;;;;;5082199;28;20028;-70
2022/03/23 02:38:17;;;;;;;34.58;17.00;;;;;;;;;;5077783;28;20112;-70
2022/03/23 02:40:44;;;;;;;29.90;17.13;;;;;;;;;;5085156;28;20024;-70
2022/03/23 02:43:10;;;;;;;30.90;16.67;;;;;;;;;;5078624;28;20032;-71
2022/03/23 02:45:36;;;;;;;31.30;16.83;;;;;;;;;;5090929;28;20035;-70
2022/03/23 02:48:03;;;;;;;29.85;16.95;;;;;;;;;;5081444;28;20439;-70
2022/03/23 02:50:29;;;;;;;29.38;17.25;;;;;;;;;;5090460;28;20078;-71
2022/03/23 03:01:53;;;;;;;24.60;15.73;;;;;;;;;;5083181;28;20044;-71
2022/03/23 03:04:19;;;;;;;29.05;16.33;;;;;;;;;;5075730;28;20426;-71
2022/03/23 03:06:46;;;;;;;31.83;16.58;;;;;;;;;;5080671;28;20048;-70
2022/03/23 03:09:12;;;;;;;30.70;15.85;;;;;;;;;;5079491;28;20135;-71
2022/03/23 03:11:38;;;;;;;28.77;15.43;;;;;;;;;;5077660;28;20028;-71
2022/03/23 03:14:04;;;;;;;28.70;15.82;;;;;;;;;;5085944;28;20025;-70
2022/03/23 03:16:30;;;;;;;24.50;14.82;;;;;;;;;;5073835;28;20474;-71
2022/03/23 03:18:56;;;;;;;30.60;15.43;;;;;;;;;;5078638;28;20055;-70
2022/03/23 03:21:22;;;;;;;25.67;15.30;;;;;;;;;;5082870;28;20032;-71
2022/03/23 03:23:48;;;;;;;32.80;15.77;;;;;;;;;;5082451;28;20394;-70
2022/03/23 03:26:16;;;;;;;26.45;14.73;;;;;;;;;;5082445;28;20028;-70
2022/03/23 03:28:42;;;;;;;26.90;16.17;;;;;;;;;;5073454;28;20131;-71
2022/03/23 03:31:10;;;;;;;29.02;16.15;;;;;;;;;;5088882;28;20040;-70
2022/03/23 03:33:36;;;;;;;26.42;15.10;;;;;;;;;;5084088;28;20028;-71
2022/03/23 03:36:02;;;;;;;25.40;15.13;;;;;;;;;;5090311;28;20134;-70
2022/03/23 03:38:28;;;;;;;30.35;15.60;;;;;;;;;;5089429;28;20111;-71
2022/03/23 03:40:54;;;;;;;31.85;15.35;;;;;;;;;;5079765;28;20111;-71
2022/03/23 03:43:20;;;;;;;28.02;15.45;;;;;;;;;;5083450;28;20024;-70
2022/03/23 03:45:46;;;;;;;34.67;15.55;;;;;;;;;;5079177;28;20028;-70
2022/03/23 03:48:13;;;;;;;30.67;15.70;;;;;;;;;;5084274;28;20024;-70
2022/03/23 03:50:39;;;;;;;26.52;14.98;;;;;;;;;;5076001;28;20032;-71
2022/03/23 03:53:05;;;;;;;34.10;15.57;;;;;;;;;;5080452;28;20119;-70
2022/03/23 03:55:31;;;;;;;27.67;15.25;;;;;;;;;;5087635;28;20158;-70
2022/03/23 03:57:57;;;;;;;31.35;15.02;;;;;;;;;;5080555;28;20468;-70
2022/03/23 04:00:23;;;;;;;30.58;15.65;;;;;;;;;;5081586;28;20028;-70
2022/03/23 04:02:49;;;;;;;34.67;17.35;;;;;;;;;;5082723;28;20020;-71
2022/03/23 04:05:15;;;;;;;28.65;15.65;;;;;;;;;;5085967;28;20099;-70
2022/03/23 04:07:41;;;;;;;28.17;16.52;;;;;;;;;;5076402;28;20067;-71
2022/03/23 04:10:07;;;;;;;24.95;14.93;;;;;;;;;;5076178;28;20490;-70
2022/03/23 04:12:34;;;;;;;28.73;16.00;;;;;;;;;;5079921;28;20407;-70
2022/03/23 04:14:59;;;;;;;28.17;15.38;;;;;;;;;;5071155;28;20032;-70
2022/03/23 04:17:25;;;;;;;29.30;16.42;;;;;;;;;;5073566;28;20073;-71
2022/03/23 04:19:51;;;;;;;29.67;15.80;;;;;;;;;;5082166;28;20459;-71
2022/03/23 04:22:17;;;;;;;31.70;15.93;;;;;;;;;;5074773;28;20111;-71
2022/03/23 04:24:43;;;;;;;31.67;16.33;;;;;;;;;;5086363;28;20110;-70
2022/03/23 04:27:09;;;;;;;30.55;16.05;;;;;;;;;;5080605;28;20035;-70
2022/03/23 04:29:35;;;;;;;28.35;15.35;;;;;;;;;;5079909;28;20089;-71
2022/03/23 04:32:01;;;;;;;28.27;15.77;;;;;;;;;;5080027;28;20433;-70
2022/03/23 04:34:27;;;;;;;27.05;14.60;;;;;;;;;;5086895;28;20035;-70
2022/03/23 04:36:53;;;;;;;28.20;15.85;;;;;;;;;;5083735;28;20020;-71
2022/03/23 04:39:19;;;;;;;28.35;15.52;;;;;;;;;;5072963;28;20086;-71
2022/03/23 04:41:45;;;;;;;26.52;15.55;;;;;;;;;;5081184;28;20480;-69
2022/03/23 04:44:11;;;;;;;26.40;15.75;;;;;;;;;;5081634;28;20036;-70
2022/03/23 04:46:37;;;;;;;26.52;15.07;;;;;;;;;;5075759;28;20016;-69
2022/03/23 04:49:03;;;;;;;27.77;15.25;;;;;;;;;;5072116;28;20020;-70
2022/03/23 04:51:30;;;;;;;30.45;15.90;;;;;;;;;;5085267;28;20035;-70
2022/03/23 04:53:56;;;;;;;29.10;15.98;;;;;;;;;;5088707;28;20505;-70
2022/03/23 04:56:22;;;;;;;30.02;16.15;;;;;;;;;;5078202;28;20029;-70
2022/03/23 04:58:48;;;;;;;27.17;14.85;;;;;;;;;;5069792;28;20089;-70
2022/03/23 05:01:14;;;;;;;32.67;15.55;;;;;;;;;;5083785;28;20035;-70
2022/03/23 05:03:40;;;;;;;30.67;15.57;;;;;;;;;;5079978;28;20051;-69
2022/03/23 05:06:06;;;;;;;27.23;14.85;;;;;;;;;;5071651;28;20107;-70
2022/03/23 05:08:32;;;;;;;29.05;15.65;;;;;;;;;;5072144;28;20144;-70
2022/03/23 05:10:58;;;;;;;29.45;15.77;;;;;;;;;;5075420;28;20031;-69
2022/03/23 05:13:24;;;;;;;28.15;15.45;;;;;;;;;;5075991;28;20047;-72
2022/03/23 05:15:50;;;;;;;27.60;15.68;;;;;;;;;;5074837;28;20039;-70
2022/03/23 05:18:16;;;;;;;30.30;15.82;;;;;;;;;;5075074;28;20028;-71
2022/03/23 05:20:42;;;;;;;31.88;15.18;;;;;;;;;;5089378;28;20036;-73
2022/03/23 05:23:08;;;;;;;26.98;15.95;;;;;;;;;;5077930;28;20371;-73
2022/03/23 05:25:34;;;;;;;27.02;15.57;;;;;;;;;;5077420;28;20413;-73
2022/03/23 05:28:00;;;;;;;30.05;16.52;;;;;;;;;;5078781;28;20032;-73
2022/03/23 05:30:26;;;;;;;31.88;16.75;;;;;;;;;;5071501;28;20074;-69
2022/03/23 05:32:52;;;;;;;30.08;15.73;;;;;;;;;;5076315;28;20032;-69
2022/03/23 05:35:18;;;;;;;34.97;16.10;;;;;;;;;;5080380;28;20028;-69
2022/03/23 05:37:44;;;;;;;34.30;16.25;;;;;;;;;;5078338;28;20024;-69
2022/03/23 05:40:11;;;;;;;32.20;16.02;;;;;;;;;;5085758;28;20040;-68
2022/03/23 05:42:37;;;;;;;29.48;16.42;;;;;;;;;;5079744;28;20024;-69
2022/03/23 05:45:03;;;;;;;28.02;15.45;;;;;;;;;;5082190;28;20036;-68
2022/03/23 05:47:29;;;;;;;32.78;17.30;;;;;;;;;;5084358;28;20096;-68
2022/03/23 05:49:55;;;;;;;27.20;16.27;;;;;;;;;;5081494;28;20030;-68
2022/03/23 05:52:21;;;;;;;34.25;16.10;;;;;;;;;;5081687;28;20107;-68
2022/03/23 05:54:47;;;;;;;29.65;16.42;;;;;;;;;;5075241;28;20545;-68
2022/03/23 05:57:13;;;;;;;30.38;16.70;;;;;;;;;;5089834;28;20345;-69
2022/03/23 05:59:39;;;;;;;30.73;16.73;;;;;;;;;;5080786;28;20031;-70
2022/03/23 06:02:05;;;;;;;33.45;17.40;;;;;;;;;;5085475;28;20058;-70
2022/03/23 06:04:30;;;;;;;33.78;17.02;;;;;;;;;;5080155;28;20055;-69
2022/03/23 06:06:56;;;;;;;41.45;18.35;;;;;;;;;;5076552;28;20062;-69
2022/03/23 06:09:22;;;;;;;33.47;17.70;;;;;;;;;;5082503;28;20032;-69
2022/03/23 06:11:48;;;;;;;33.58;17.38;;;;;;;;;;5082313;28;20020;-69
2022/03/23 06:14:14;;;;;;;32.63;17.35;;;;;;;;;;5076352;28;20049;-69
2022/03/23 06:16:40;;;;;;;42.75;17.58;;;;;;;;;;5082390;28;20042;-69
2022/03/23 06:19:09;;;;;;;32.90;17.75;;;;;;;;;;5089225;28;20032;-68
2022/03/23 06:21:34;;;;;;;37.53;18.05;;;;;;;;;;5089327;28;20032;-69
2022/03/23 06:24:00;;;;;;;37.40;18.83;;;;;;;;;;5083858;28;20016;-69
2022/03/23 06:26:26;;;;;;;38.50;18.27;;;;;;;;;;5087591;28;20035;-68
2022/03/23 06:28:53;;;;;;;36.53;19.40;;;;;;;;;;5090244;28;20024;-69
2022/03/23 06:31:18;;;;;;;40.10;20.75;;;;;;;;;;5082833;28;20025;-69
2022/03/23 06:33:44;;;;;;;44.03;20.60;;;;;;;;;;5089244;28;20031;-69
2022/03/23 06:36:10;;;;;;;48.97;20.73;;;;;;;;;;5075414;28;20044;-69
2022/03/23 06:38:36;;;;;;;42.53;21.60;;;;;;;;;;5077178;28;20166;-68
2022/03/23 06:41:03;;;;;;;49.92;22.60;;;;;;;;;;5082551;28;20030;-69
2022/03/23 06:43:28;;;;;;;39.97;21.80;;;;;;;;;;5083112;28;20043;-69
2022/03/23 06:45:54;;;;;;;49.83;22.15;;;;;;;;;;5079550;28;20386;-70
2022/03/23 06:48:20;;;;;;;41.58;21.10;;;;;;;;;;5090686;28;20025;-69
2022/03/23 06:50:46;;;;;;;46.75;22.40;;;;;;;;;;5090728;28;20032;-70
2022/03/23 06:53:12;;;;;;;39.97;22.17;;;;;;;;;;5081514;28;20118;-69
2022/03/23 06:55:38;;;;;;;47.00;22.15;;;;;;;;;;5083495;28;20059;-69
2022/03/23 06:58:04;;;;;;;41.55;21.20;;;;;;;;;;5086715;28;20121;-69
2022/03/23 07:00:31;;;;;;;42.97;20.75;;;;;;;;;;5090194;28;20147;-69
2022/03/23 07:02:58;;;;;;;46.53;21.50;;;;;;;;;;5080213;28;20033;-71
2022/03/23 07:05:24;;;;;;;36.58;20.95;;;;;;;;;;5077085;28;20103;-72
2022/03/23 07:10:35;;;;;;;52.10;22.60;;;;;;;;;;5086024;28;20533;-71
2022/03/23 07:13:01;;;;;;;48.60;23.20;;;;;;;;;;5078883;28;20028;-71
2022/03/23 07:15:27;;;;;;;44.55;21.30;;;;;;;;;;5096137;28;20027;-72
2022/03/23 07:17:53;;;;;;;45.15;21.50;;;;;;;;;;5084022;28;20044;-71
2022/03/23 07:20:19;;;;;;;49.17;21.33;;;;;;;;;;5087134;28;20497;-70
2022/03/23 07:22:45;;;;;;;45.45;20.45;;;;;;;;;;5073288;28;20535;-70
2022/03/23 07:25:11;;;;;;;45.80;21.67;;;;;;;;;;5082982;28;20024;-70
2022/03/23 07:27:37;;;;;;;42.55;21.38;;;;;;;;;;5082460;28;20046;-71
2022/03/23 07:30:04;;;;;;;40.40;21.45;;;;;;;;;;5079943;28;20486;-70
2022/03/23 07:32:30;;;;;;;40.03;19.80;;;;;;;;;;5069693;28;20486;-71
2022/03/23 07:34:56;;;;;;;48.10;20.00;;;;;;;;;;5069267;28;20036;-71
2022/03/23 07:37:22;;;;;;;40.58;19.20;;;;;;;;;;5082344;28;20036;-70
2022/03/23 07:39:48;;;;;;;46.35;21.10;;;;;;;;;;5081808;28;20043;-71
2022/03/23 07:42:14;;;;;;;40.13;20.42;;;;;;;;;;5081188;28;20070;-71
2022/03/23 07:44:40;;;;;;;38.53;20.83;;;;;;;;;;5067897;28;20027;-70
2022/03/23 07:47:13;;;;;;;44.28;20.17;;;;;;;;;;5072063;28;20472;-70
2022/03/23 07:49:40;;;;;;;35.45;20.13;;;;;;;;;;5065599;28;20510;-71
2022/03/23 07:52:06;;;;;;;43.15;20.48;;;;;;;;;;5071063;28;20062;-69
2022/03/23 07:54:32;;;;;;;34.88;20.52;;;;;;;;;;5068749;28;20032;-70
2022/03/23 07:56:58;;;;;;;38.90;20.65;;;;;;;;;;5078352;28;20115;-71
2022/03/23 07:59:24;;;;;;;37.80;19.95;;;;;;;;;;5073675;28;20053;-71
2022/03/23 08:01:50;;;;;;;40.80;21.58;;;;;;;;;;5073546;28;20475;-70
2022/03/23 08:04:16;;;;;;;37.05;19.45;;;;;;;;;;5063743;28;20036;-71
2022/03/23 08:06:42;;;;;;;39.17;19.85;;;;;;;;;;5075227;28;20023;-71
2022/03/23 08:09:09;;;;;;;35.88;20.00;;;;;;;;;;5072962;28;20489;-71
2022/03/23 08:11:35;;;;;;;35.97;20.38;;;;;;;;;;5068279;28;20040;-71
2022/03/23 08:14:01;;;;;;;37.70;22.05;;;;;;;;;;5081631;28;20055;-71
2022/03/23 08:16:27;;;;;;;38.90;20.35;;;;;;;;;;5082954;28;20028;-71
2022/03/23 08:18:53;;;;;;;37.95;21.23;;;;;;;;;;5070005;28;20036;-70
2022/03/23 08:21:21;;;;;;;36.75;20.10;;;;;;;;;;5076255;28;20028;-71
2022/03/23 08:23:47;;;;;;;39.63;19.63;;;;;;;;;;5070330;28;20398;-71
2022/03/23 08:26:14;;;;;;;47.45;21.42;;;;;;;;;;5069380;28;20035;-71
2022/03/23 08:28:40;;;;;;;43.92;20.80;;;;;;;;;;5077068;28;20477;-71
2022/03/23 08:31:06;;;;;;;40.70;19.98;;;;;;;;;;5078102;28;20130;-70
2022/03/23 08:33:35;;;;;;;44.03;21.23;;;;;;;;;;5068127;28;20182;-69
2022/03/23 08:36:02;;;;;;;39.25;20.70;;;;;;;;;;5078000;28;20115;-74
2022/03/23 08:38:28;;;;;;;36.90;20.42;;;;;;;;;;5082869;28;20433;-72
2022/03/23 08:40:54;;;;;;;42.03;21.27;;;;;;;;;;5073881;28;20043;-70
2022/03/23 08:43:20;;;;;;;39.00;21.10;;;;;;;;;;5076223;28;20466;-70
2022/03/23 08:45:47;;;;;;;40.25;19.65;;;;;;;;;;5071465;28;20016;-70
2022/03/23 08:48:13;;;;;;;39.05;19.98;;;;;;;;;;5069417;28;20536;-69
2022/03/23 08:50:40;;;;;;;45.05;19.92;;;;;;;;;;5080589;28;20072;-72
2022/03/23 08:53:07;;;;;;;38.53;19.40;;;;;;;;;;5078990;28;20032;-72
2022/03/23 08:55:33;;;;;;;38.13;20.00;;;;;;;;;;5078942;28;20490;-69
2022/03/23 08:57:59;;;;;;;35.78;20.15;;;;;;;;;;5076687;28;20093;-69
2022/03/23 09:00:25;;;;;;;36.00;19.85;;;;;;;;;;5074914;28;20043;-69
2022/03/23 09:02:51;;;;;;;37.80;19.90;;;;;;;;;;5072527;28;20095;-69
2022/03/23 09:05:19;;;;;;;33.33;19.50;;;;;;;;;;5072655;28;20601;-70
2022/03/23 09:07:44;;;;;;;37.85;19.00;;;;;;;;;;5071965;28;20140;-72
2022/03/23 09:10:13;;;;;;;33.10;18.50;;;;;;;;;;5072940;28;20156;-69
2022/03/23 09:12:39;;;;;;;36.47;19.30;;;;;;;;;;5072389;28;20498;-71
2022/03/23 09:15:06;;;;;;;32.35;18.88;;;;;;;;;;5074113;28;20024;-70
2022/03/23 09:17:32;;;;;;;35.47;19.90;;;;;;;;;;5064071;28;20016;-70
2022/03/23 09:20:00;;;;;;;30.15;19.20;;;;;;;;;;5070525;28;20542;-70
2022/03/23 09:22:26;;;;;;;31.33;18.85;;;;;;;;;;5071949;28;20028;-74
2022/03/23 09:24:52;;;;;;;42.50;19.33;;;;;;;;;;5088143;28;20034;-74
2022/03/23 09:27:18;;;;;;;34.60;18.90;;;;;;;;;;5076621;28;20142;-69
2022/03/23 09:29:45;;;;;;;32.70;19.08;;;;;;;;;;5083538;28;20038;-70
2022/03/23 09:32:12;;;;;;;30.15;18.50;;;;;;;;;;5069089;28;20028;-70
2022/03/23 09:34:38;;;;;;;35.58;19.35;;;;;;;;;;5067250;28;20507;-70
2022/03/23 09:39:49;;;;;;;31.67;17.23;;;;;;;;;;5069218;28;20399;-70
2022/03/23 09:42:18;;;;;;;34.03;17.50;;;;;;;;;;5070780;28;20517;-70
2022/03/23 09:44:45;;;;;;;30.60;17.70;;;;;;;;;;5091068;28;20059;-70
2022/03/23 09:47:11;;;;;;;25.30;16.90;;;;;;;;;;5082158;28;20016;-69
2022/03/23 09:49:38;;;;;;;28.77;17.65;;;;;;;;;;5089872;28;20053;-70
2022/03/23 09:52:05;;;;;;;30.85;16.33;;;;;;;;;;5082728;28;20032;-70
2022/03/23 09:54:31;;;;;;;29.55;17.92;;;;;;;;;;5093971;28;20433;-69
2022/03/23 09:56:57;;;;;;;27.15;17.15;;;;;;;;;;5081900;28;20082;-70
2022/03/23 09:59:23;;;;;;;29.55;17.42;;;;;;;;;;5067525;28;20047;-70
2022/03/23 10:01:49;;;;;;;27.45;16.45;;;;;;;;;;5071276;28;20027;-69
2022/03/23 10:04:18;;;;;;;29.60;17.60;;;;;;;;;;5072455;28;20116;-70
2022/03/23 10:07:03;;;;;;;24.98;17.08;;;;;;;;;;5071695;28;20021;-69
2022/03/23 10:09:40;;;;;;;26.27;16.35;;;;;;;;;;5071108;28;20119;-69
2022/03/23 10:12:27;;;;;;;27.45;16.83;;;;;;;;;;5076003;28;20036;-70
2022/03/23 10:15:18;;;;;;;32.35;18.10;;;;;;;;;;5041843;28;20040;-70
2022/03/23 10:17:44;;;;;;;;;;;;;;;;;;5075642;28;20041;-70
2022/03/23 10:20:14;;;;;;;28.33;16.88;;;;;;;;;;5087641;28;20285;-70
2022/03/23 10:22:47;;;;;;;26.92;17.52;;;;;;;;;;5071566;28;20032;-72
2022/03/23 10:25:13;;;;;;;25.30;17.63;;;;;;;;;;5076715;28;20031;-70
2022/03/23 10:27:40;;;;;;;27.05;17.95;;;;;;;;;;5063986;28;20487;-69
2022/03/23 10:30:06;;;;;;;31.35;18.08;;;;;;;;;;5068174;28;20075;-70
2022/03/23 10:32:41;;;;;;;25.38;16.23;;;;;;;;;;5072671;28;20043;-70
2022/03/23 10:35:11;;;;;;;25.10;16.85;;;;;;;;;;5071545;28;20028;-70
2022/03/23 10:37:37;;;;;;;27.75;17.38;;;;;;;;;;5077334;28;20563;-70
2022/03/23 10:40:08;;;;;;;29.88;18.83;;;;;;;;;;5079785;28;20062;-70
2022/03/23 10:42:35;;;;;;;34.58;19.88;;;;;;;;;;5083515;28;20024;-67
2022/03/23 10:45:12;;;;;;;27.85;17.85;;;;;;;;;;5079442;28;20036;-68
2022/03/23 10:47:39;;;;;;;30.25;18.95;;;;;;;;;;5078371;28;20031;-68
2022/03/23 10:50:07;;;;;;;30.88;18.48;;;;;;;;;;5075172;28;20024;-68
2022/03/23 10:52:33;;;;;;;34.58;18.63;;;;;;;;;;5067064;28;20044;-68
2022/03/23 10:55:05;;;;;;;27.58;18.33;;;;;;;;;;5085094;28;20657;-69
2022/03/23 10:57:57;;;;;;;28.33;18.65;;;;;;;;;;5081213;28;20030;-70
2022/03/23 11:00:34;;;;;;;29.25;18.02;;;;;;;;;;5059715;28;20104;-68
2022/03/23 11:03:01;;;;;;;29.05;18.50;;;;;;;;;;5077576;28;20498;-68
2022/03/23 11:05:34;;;;;;;29.73;19.15;;;;;;;;;;5086967;28;20186;-70
2022/03/23 11:08:07;;;;;;;33.22;18.17;;;;;;;;;;5084757;28;20036;-71
2022/03/23 11:16:13;;;;;;;28.08;18.92;;;;;;;;;;5082979;28;20035;-68
2022/03/23 11:18:40;;;;;;;39.65;18.38;;;;;;;;;;5079671;28;20028;-69
2022/03/23 11:21:09;;;;;;;32.05;18.55;;;;;;;;;;5085160;28;20470;-69
2022/03/23 11:23:36;;;;;;;34.35;19.52;;;;;;;;;;5071043;28;20020;-69
2022/03/23 11:26:03;;;;;;;28.17;17.77;;;;;;;;;;5070346;28;20095;-69
2022/03/23 11:28:31;;;;;;;28.33;18.30;;;;;;;;;;5083268;28;20042;-69
2022/03/23 11:30:57;;;;;;;33.30;19.27;;;;;;;;;;5086943;28;20036;-69
2022/03/23 11:33:24;;;;;;;30.48;20.63;;;;;;;;;;5074971;28;20036;-70
2022/03/23 11:35:50;;;;;;;28.02;19.33;;;;;;;;;;5082650;28;20024;-71
2022/03/23 11:38:18;;;;;;;27.65;19.88;;;;;;;;;;5081419;28;20031;-71
2022/03/23 11:40:44;;;;;;;31.40;19.30;;;;;;;;;;5081210;28;20097;-71
2022/03/23 11:43:11;;;;;;;28.33;19.55;;;;;;;;;;5078470;28;20874;-71
2022/03/23 11:45:38;;;;;;;25.83;18.70;;;;;;;;;;5079664;28;20089;-70
2022/03/23 11:48:10;;;;;;;28.42;18.88;;;;;;;;;;5083799;28;20028;-70
2022/03/23 11:50:48;;;;;;;27.15;18.73;;;;;;;;;;5075188;28;20031;-70
2022/03/23 11:53:14;;;;;;;27.63;19.55;;;;;;;;;;5080440;28;20364;-70
2022/03/23 11:55:46;;;;;;;28.38;19.92;;;;;;;;;;5080120;28;20089;-73
2022/03/23 11:58:17;;;;;;;28.02;18.98;;;;;;;;;;5074884;28;20027;-71
2022/03/23 12:00:45;;;;;;;28.88;19.02;;;;;;;;;;5066315;28;20115;-69
2022/03/23 12:03:11;;;;;;;29.73;19.50;;;;;;;;;;5066996;28;20119;-70
2022/03/23 12:05:48;;;;;;;26.38;19.08;;;;;;;;;;5084376;28;20028;-70
2022/03/23 12:08:14;;;;;;;26.00;19.20;;;;;;;;;;5086221;28;20036;-70
2022/03/23 12:10:44;;;;;;;27.67;18.77;;;;;;;;;;5073134;28;20058;-71
2022/03/23 12:13:15;;;;;;;27.65;18.17;;;;;;;;;;5080364;28;20032;-70
2022/03/23 12:15:58;;;;;;;30.05;19.48;;;;;;;;;;5066343;28;20600;-71
2022/03/23 12:18:58;;;;;;;29.02;18.45;;;;;;;;;;5069253;28;20166;-70
2022/03/23 12:21:28;;;;;;;27.40;19.48;;;;;;;;;;5070259;28;20034;-68
2022/03/23 12:23:57;;;;;;;26.65;18.42;;;;;;;;;;5078774;28;20555;-70
2022/03/23 12:26:23;;;;;;;25.13;17.77;;;;;;;;;;5070339;28;20030;-67
2022/03/23 12:29:03;;;;;;;23.63;18.50;;;;;;;;;;5081486;28;20138;-68
2022/03/23 12:31:37;;;;;;;25.27;17.00;;;;;;;;;;5082494;28;20695;-68
2022/03/23 12:34:19;;;;;;;26.20;19.05;;;;;;;;;;5087015;28;20039;-67
2022/03/23 12:36:59;;;;;;;25.08;15.70;;;;;;;;;;5081959;28;20022;-68
2022/03/23 12:39:32;;;;;;;24.83;16.67;;;;;;;;;;5072840;28;20036;-68
2022/03/23 12:41:59;;;;;;;20.77;14.40;;;;;;;;;;5072163;28;20024;-68
2022/03/23 12:44:30;;;;;;;26.30;18.80;;;;;;;;;;5084544;28;20643;-67
2022/03/23 12:46:55;;;;;;;27.15;16.33;;;;;;;;;;5079115;28;20425;-67
2022/03/23 12:58:21;;;;;;;26.33;19.15;;;;;;;;;;5074938;28;20035;-68
2022/03/23 13:00:48;;;;;;;36.42;18.23;;;;;;;;;;5064101;28;20046;-68
2022/03/23 13:03:22;;;;;;;22.73;15.98;;;;;;;;;;5081082;28;20020;-68
2022/03/23 13:05:58;;;;;;;26.02;17.48;;;;;;;;;;5079475;28;20095;-67
2022/03/23 13:08:30;;;;;;;24.92;19.27;;;;;;;;;;5080499;28;20052;-67
2022/03/23 13:10:58;;;;;;;;;;;;;;;;;;5077450;28;20028;-67
2022/03/23 13:13:24;;;;;;;28.75;20.33;;;;;;;;;;5081970;28;20255;-68
2022/03/23 13:15:50;;;;;;;24.98;19.35;;;;;;;;;;5079882;28;20502;-68
2022/03/23 13:18:16;;;;;;;30.10;20.85;;;;;;;;;;5068431;28;20028;-68
2022/03/23 13:20:52;;;;;;;29.92;20.17;;;;;;;;;;5072892;28;20093;-67
2022/03/23 13:23:19;;;;;;;31.98;18.13;;;;;;;;;;5079823;28;20028;-69
2022/03/23 13:25:45;;;;;;;35.80;21.27;;;;;;;;;;5073119;28;20103;-70
2022/03/23 13:28:13;;;;;;;25.75;19.70;;;;;;;;;;5075988;28;20102;-70
2022/03/23 13:30:40;;;;;;;29.13;20.50;;;;;;;;;;5071387;28;20028;-69
2022/03/23 13:33:09;;;;;;;31.35;21.02;;;;;;;;;;5084523;28;20052;-69
2022/03/23 13:35:41;;;;;;;25.15;19.67;;;;;;;;;;5071689;28;20043;-69
2022/03/23 13:38:08;;;;;;;26.48;19.25;;;;;;;;;;5074682;28;20491;-69
2022/03/23 13:43:32;;;;;;;27.27;19.85;;;;;;;;;;5069762;28;20070;-72
2022/03/23 13:45:59;;;;;;;23.63;18.58;;;;;;;;;;5084200;28;20028;-71
2022/03/23 13:48:30;;;;;;;25.48;20.08;;;;;;;;;;5080026;28;20051;-72
2022/03/23 13:50:57;;;;;;;22.50;17.27;;;;;;;;;;5079760;28;20415;-72
2022/03/23 13:53:23;;;;;;;23.13;19.13;;;;;;;;;;5081109;28;20028;-72
2022/03/23 13:55:52;;;;;;;26.90;20.17;;;;;;;;;;5081683;28;20119;-71
2022/03/23 13:58:18;;;;;;;28.23;19.13;;;;;;;;;;5078088;28;20032;-71
2022/03/23 14:00:45;;;;;;;25.63;19.92;;;;;;;;;;5071657;28;20038;-72
2022/03/23 14:03:12;;;;;;;23.25;18.98;;;;;;;;;;5074769;28;20035;-72
2022/03/23 14:05:38;;;;;;;23.33;18.10;;;;;;;;;;5078288;28;20044;-72
2022/03/23 14:08:05;;;;;;;28.00;18.98;;;;;;;;;;5081088;28;20045;-71
2022/03/23 14:10:35;;;;;;;22.83;20.00;;;;;;;;;;5076121;28;20505;-68
2022/03/23 14:13:08;;;;;;;23.93;20.43;;;;;;;;;;5078893;28;20032;-67
2022/03/23 14:15:35;;;;;;;27.23;20.88;;;;;;;;;;5083296;28;20130;-68
2022/03/23 14:18:01;;;;;;;25.83;20.20;;;;;;;;;;5074335;28;20029;-68
2022/03/23 14:20:28;;;;;;;24.88;19.70;;;;;;;;;;5087499;28;20691;-70
2022/03/23 14:22:54;;;;;;;25.23;19.00;;;;;;;;;;5079341;28;20031;-70
2022/03/23 14:25:20;;;;;;;23.42;19.52;;;;;;;;;;5090826;28;20032;-71
2022/03/23 14:27:49;;;;;;;27.02;19.90;;;;;;;;;;5084022;28;20107;-71
2022/03/23 14:30:18;;;;;;;25.30;19.33;;;;;;;;;;5089681;28;20391;-70
2022/03/23 14:32:53;;;;;;;25.77;20.42;;;;;;;;;;5091252;28;20012;-68
2022/03/23 14:35:20;;;;;;;23.88;19.05;;;;;;;;;;5092024;28;20024;-71
2022/03/23 14:37:47;;;;;;;24.73;19.45;;;;;;;;;;5079668;28;20029;-72
2022/03/23 14:40:27;;;;;;;21.73;17.30;;;;;;;;;;5078795;28;20157;-70
2022/03/23 14:42:54;;;;;;;19.85;16.40;;;;;;;;;;5080095;28;20051;-68
2022/03/23 14:45:31;;;;;;;22.50;18.48;;;;;;;;;;5088134;28;20081;-67
2022/03/23 14:47:58;;;;;;;23.85;18.38;;;;;;;;;;5087444;28;20043;-67
2022/03/23 14:50:24;;;;;;;20.38;16.50;;;;;;;;;;5080466;28;20082;-67
2022/03/23 14:52:50;;;;;;;20.38;16.92;;;;;;;;;;5091723;28;20587;-68